createdAt,value
2023-09-02T00:02:19.092Z,80.60
2023-09-02T00:10:27.024Z,82.00
2023-09-02T00:18:32.851Z,82.40
2023-09-02T00:26:40.880Z,82.10
2023-09-02T00:34:46.954Z,82.90
2023-09-02T00:42:56.174Z,84.20
2023-09-02T00:51:03.808Z,84.20
2023-09-02T00:59:11.952Z,84.20
2023-09-02T01:07:17.769Z,83.80
2023-09-02T01:15:26.041Z,84.50
2023-09-02T01:23:57.129Z,85.10
2023-09-02T01:32:05.783Z,85.20
2023-09-02T01:40:15.266Z,85.00
2023-09-02T01:48:24.993Z,84.90
2023-09-02T01:56:31.602Z,85.10
2023-09-02T02:04:46.231Z,85.80
2023-09-02T02:12:54.582Z,85.40
2023-09-02T02:21:04.769Z,85.20
2023-09-02T02:29:12.714Z,85.40
2023-09-02T02:37:18.136Z,85.60
2023-09-02T02:45:26.226Z,85.70
2023-09-02T02:53:31.496Z,85.30
2023-09-02T03:01:43.714Z,85.40
2023-09-02T03:09:49.753Z,85.50
2023-09-02T03:17:58.025Z,85.40
2023-09-02T03:26:12.818Z,85.60
2023-09-02T03:34:23.574Z,85.30
2023-09-02T03:42:28.941Z,85.20
2023-09-02T03:50:37.040Z,85.30
2023-09-02T03:58:43.088Z,85.60
2023-09-02T04:06:51.718Z,85.40
2023-09-02T04:14:57.211Z,85.10
2023-09-02T04:23:05.292Z,84.80
2023-09-02T04:31:10.908Z,85.40
2023-09-02T04:39:18.861Z,85.10
2023-09-02T04:47:26.116Z,85.00
2023-09-02T04:55:35.093Z,84.50
2023-09-02T05:03:41.649Z,84.30
2023-09-02T05:11:49.712Z,83.70
2023-09-02T05:19:55.211Z,82.40
2023-09-02T05:28:03.210Z,83.70
2023-09-02T05:36:09.034Z,82.60
2023-09-02T05:44:17.163Z,82.40
2023-09-02T05:52:22.636Z,82.30
2023-09-02T06:00:30.633Z,80.20
2023-09-02T06:08:36.555Z,78.70
2023-09-02T06:16:44.408Z,78.70
2023-09-02T06:24:49.735Z,78.90
2023-09-02T06:32:58.039Z,77.80
2023-09-02T06:41:03.438Z,75.00
2023-09-02T06:49:11.785Z,73.30
2023-09-02T06:57:17.126Z,70.90
2023-09-02T07:05:25.133Z,70.60
2023-09-02T07:13:30.672Z,69.60
2023-09-02T07:21:38.590Z,70.20
2023-09-02T07:29:43.984Z,70.70
2023-09-02T07:37:52.025Z,69.80
2023-09-02T07:46:00.083Z,67.80
2023-09-02T07:54:08.262Z,65.80
2023-09-02T08:02:13.627Z,68.70
2023-09-02T08:10:21.840Z,65.80
2023-09-02T08:18:27.288Z,66.60
2023-09-02T08:26:35.315Z,66.20
2023-09-02T08:34:40.625Z,64.40
2023-09-02T08:42:50.854Z,64.60
2023-09-02T08:50:57.893Z,65.00
2023-09-02T08:59:05.879Z,64.20
2023-09-02T09:07:13.864Z,64.70
2023-09-02T09:15:22.973Z,60.60
2023-09-02T09:23:28.233Z,58.50
2023-09-02T09:31:36.089Z,60.60
2023-09-02T09:39:45.940Z,59.00
2023-09-02T09:47:54.028Z,57.70
2023-09-02T10:05:18.613Z,55.00
2023-09-02T10:14:00.569Z,54.90
2023-09-02T10:22:22.711Z,54.90
2023-09-02T10:30:36.036Z,56.50
2023-09-02T10:38:51.509Z,53.50
2023-09-02T12:22:29.789Z,23.90
2023-09-02T12:30:35.226Z,25.80
2023-09-02T12:38:56.051Z,26.10
2023-09-02T12:47:01.402Z,25.20
2023-09-02T12:55:14.957Z,24.90
2023-09-02T13:03:20.573Z,25.20
2023-09-02T13:11:30.535Z,29.60
2023-09-02T13:19:36.572Z,35.30
2023-09-02T13:27:44.842Z,39.20
2023-09-02T13:35:50.254Z,42.30
2023-09-02T13:43:58.205Z,44.50
2023-09-02T13:52:03.880Z,47.00
2023-09-02T14:00:25.165Z,47.50
2023-09-02T14:08:39.094Z,48.90
2023-09-02T14:16:47.137Z,48.90
2023-09-02T14:24:53.995Z,49.30
2023-09-02T14:33:02.027Z,50.40
2023-09-02T14:41:07.411Z,50.60
2023-09-02T14:49:16.288Z,50.70
2023-09-02T14:57:22.130Z,50.30
2023-09-02T15:05:31.595Z,51.00
2023-09-02T15:13:40.543Z,51.20
2023-09-02T15:21:48.456Z,51.90
2023-09-02T15:29:54.464Z,51.90
2023-09-02T15:38:04.342Z,51.90
2023-09-02T15:46:10.392Z,53.20
2023-09-02T15:54:18.484Z,53.70
2023-09-02T16:02:23.939Z,54.30
2023-09-02T16:10:34.137Z,53.30
2023-09-02T16:18:39.551Z,54.20
2023-09-02T16:26:47.620Z,54.00
2023-09-02T16:34:53.121Z,55.00
2023-09-02T16:43:02.517Z,55.80
2023-09-02T16:51:08.012Z,56.10
2023-09-02T16:59:16.527Z,56.50
2023-09-02T17:07:21.968Z,56.70
2023-09-02T17:15:38.469Z,57.50
2023-09-02T17:23:47.874Z,58.20
2023-09-02T17:31:58.397Z,59.00
2023-09-02T17:40:04.237Z,59.10
2023-09-02T17:48:14.325Z,60.10
2023-09-02T17:56:19.851Z,62.10
2023-09-02T18:04:27.876Z,63.50
2023-09-02T18:12:33.207Z,65.00
2023-09-02T18:20:41.189Z,65.40
2023-09-02T18:28:46.868Z,66.30
2023-09-02T18:36:54.900Z,66.80
2023-09-02T18:45:00.369Z,67.40
2023-09-02T18:53:08.414Z,68.30
2023-09-02T19:01:14.126Z,68.10
2023-09-02T19:09:22.116Z,68.30
2023-09-02T19:17:27.771Z,68.80
2023-09-02T19:25:40.439Z,68.80
2023-09-02T19:33:46.252Z,69.20
2023-09-02T19:41:56.623Z,69.50
2023-09-02T19:50:01.993Z,69.70
2023-09-02T19:58:10.185Z,70.10
2023-09-02T20:06:16.615Z,72.40
2023-09-02T20:14:24.540Z,73.00
2023-09-02T20:22:29.955Z,74.00
2023-09-02T20:30:41.128Z,74.40
2023-09-02T20:38:47.022Z,74.80
2023-09-02T20:46:55.105Z,74.90
2023-09-02T20:55:01.053Z,75.60
2023-09-02T21:03:09.289Z,75.80
2023-09-02T21:11:15.900Z,76.30
2023-09-02T21:19:23.840Z,76.30
2023-09-02T21:27:29.054Z,76.40
2023-09-02T21:35:40.994Z,76.80
2023-09-02T21:43:46.984Z,77.60
2023-09-02T21:51:54.996Z,77.50
2023-09-02T22:00:00.507Z,77.90
2023-09-02T22:08:09.793Z,77.40
2023-09-02T22:16:15.252Z,77.40
2023-09-02T22:24:23.213Z,78.20
2023-09-02T22:32:28.575Z,77.80
2023-09-02T22:40:36.869Z,77.80
2023-09-02T22:48:42.256Z,78.10
2023-09-02T22:56:51.054Z,78.80
2023-09-02T23:04:56.481Z,79.00
2023-09-02T23:13:04.963Z,79.30
2023-09-02T23:21:14.519Z,79.40
2023-09-02T23:29:22.609Z,79.40
2023-09-02T23:37:27.966Z,79.40
2023-09-02T23:45:38.616Z,79.90
2023-09-02T23:53:43.864Z,79.80
